Layton, NJ (07851)

2:28 PM EDT on September 23, 2014 (GMT -0400)
Kittatinny Lake | Change Station
CLOSE
Current Station
Personal Weather Station
Location: Branchville, NJ
Elevation: 912 ft
Nearby Weather Stations

Elev 912 ft 41.17 °N, 74.80 °W | Updated 15 seconds ago

Clear
Clear
67.3 °F
Feels Like 67.3 °F
N
0.2
Wind Variable Wind from North
Gusts 2.5 mph

Today
High -- | Low -- °F
--% Chance of Precip.
Yesterday
High -- | Low -- °F
Precip. -- in
6:47 AM 6:54 PM
Waning Crescent, 0% visible
Pressure 30.32 in
Visibility 10.0 miles
Clouds Clear
Dew Point 44 °F
Humidity 43%
Rainfall 0.00 in
Snow Depth Not available.
UV 7 out of 12
Pollen 3.10 out of 12
Air Quality Not available.
Flu Activity Not available.
METAR KFWN 231753Z AUTO VRB03KT 10SM CLR 21/06 A3031 RMK AO2 SLP265 T02110061 10211 20078 58005

More Conditions Fewer Conditions

Pressure 30.32 in
Visibility 10.0 miles
Clouds Clear
Dew Point 44 °F
Humidity 43%
Rainfall 0.00 in
Snow Depth Not available.
UV 7 out of 12
Pollen 3.10 out of 12
Air Quality Not available.
Flu Activity Not available.
METAR KFWN 231753Z AUTO VRB03KT 10SM CLR 21/06 A3031 RMK AO2 SLP265 T02110061 10211 20078 58005

More Conditions Fewer Conditions

10-Day Weather Forecast

Almanac

Astronomy

Sep. 23, 2014 Rise Set
Actual Time 6:47 AM EDT 6:54 PM EDT
Civil Twilight 6:20 AM EDT 7:22 PM EDT
Nautical Twilight 5:48 AM EDT 7:54 PM EDT
Astronomical Twilight 5:15 AM EDT 8:27 PM EDT
Moon 6:09 AM EDT 6:32 PM EDT
Length of Visible Light 13h 02m
Length of Day
12h 07m
Tomorrow will be 2m 43s shorter.
Waning Crescent, 0% of the Moon is Illuminated
Today
Waning Crescent
Sep 24
New
Oct 1
First Quarter
Oct 8
Full
Oct 15
Last Quarter

Today's Extremes

State Highs State Lows

Community

WunderPhotos

Upload Photos

1,755,771 photos uploaded!

Nearby

Snow Depth

Station Depth Elevation
No new snow has been reported.

Earthquake Activity

City Distance Mag. Time & Date
No recent earthquake activity has been reported nearby.
Minimum magnitude displayed is 2.5.

Coastal Water Temperatures

Place Temperature
No Stations Reporting

Nearby Weather Stations